sensor_id;sensor_type;location;lat;lon;timestamp;pressure;altitude;pressure_sealevel;temperature;humidity
79463;BME280;68931;47.286;18.756;2023-06-04T00:00:17;100925.59;;;11.90;73.57
79463;BME280;68931;47.286;18.756;2023-06-04T00:00:49;100926.47;;;11.90;73.61
79463;BME280;68931;47.286;18.756;2023-06-04T00:01:21;100935.19;;;11.91;74.28
79463;BME280;68931;47.286;18.756;2023-06-04T00:01:53;100929.09;;;11.90;74.07
79463;BME280;68931;47.286;18.756;2023-06-04T00:02:29;100934.44;;;11.89;74.09
79463;BME280;68931;47.286;18.756;2023-06-04T00:03:01;100924.41;;;11.80;73.81
79463;BME280;68931;47.286;18.756;2023-06-04T00:03:34;100915.22;;;11.71;73.50
79463;BME280;68931;47.286;18.756;2023-06-04T00:04:06;100928.16;;;11.76;73.24
79463;BME280;68931;47.286;18.756;2023-06-04T00:04:38;100933.63;;;11.71;72.58
79463;BME280;68931;47.286;18.756;2023-06-04T00:05:10;100930.25;;;11.69;72.31
79463;BME280;68931;47.286;18.756;2023-06-04T00:05:42;100929.94;;;11.75;72.17
79463;BME280;68931;47.286;18.756;2023-06-04T00:06:14;100922.09;;;11.74;73.10
79463;BME280;68931;47.286;18.756;2023-06-04T00:06:46;100925.53;;;11.76;73.50
79463;BME280;68931;47.286;18.756;2023-06-04T00:07:18;100926.31;;;11.78;73.04
79463;BME280;68931;47.286;18.756;2023-06-04T00:07:57;100917.56;;;11.77;73.42
79463;BME280;68931;47.286;18.756;2023-06-04T00:08:29;100912.41;;;11.76;71.81
79463;BME280;68931;47.286;18.756;2023-06-04T00:09:01;100929.44;;;11.84;72.39
79463;BME280;68931;47.286;18.756;2023-06-04T00:09:33;100928.44;;;11.87;72.90
79463;BME280;68931;47.286;18.756;2023-06-04T00:10:08;100928.25;;;11.90;72.04
79463;BME280;68931;47.286;18.756;2023-06-04T00:10:40;100925.69;;;11.88;72.16
79463;BME280;68931;47.286;18.756;2023-06-04T00:11:19;100925.53;;;11.91;72.94
79463;BME280;68931;47.286;18.756;2023-06-04T00:11:51;100923.47;;;11.96;73.66
79463;BME280;68931;47.286;18.756;2023-06-04T00:12:23;100924.09;;;12.01;72.90
79463;BME280;68931;47.286;18.756;2023-06-04T00:12:56;100928.13;;;12.07;71.96
79463;BME280;68931;47.286;18.756;2023-06-04T00:13:28;100920.25;;;12.07;72.34
79463;BME280;68931;47.286;18.756;2023-06-04T00:14:00;100922.03;;;12.06;73.35
79463;BME280;68931;47.286;18.756;2023-06-04T00:14:32;100916.84;;;12.05;73.45
79463;BME280;68931;47.286;18.756;2023-06-04T00:15:04;100917.88;;;12.02;73.73
79463;BME280;68931;47.286;18.756;2023-06-04T00:15:37;100919.16;;;12.11;72.58
79463;BME280;68931;47.286;18.756;2023-06-04T00:16:09;100930.31;;;12.15;73.29
79463;BME280;68931;47.286;18.756;2023-06-04T00:16:41;100926.03;;;12.14;73.83
79463;BME280;68931;47.286;18.756;2023-06-04T00:17:13;100931.19;;;12.15;73.08
79463;BME280;68931;47.286;18.756;2023-06-04T00:17:45;100920.09;;;12.10;74.09
79463;BME280;68931;47.286;18.756;2023-06-04T00:18:17;100923.47;;;12.12;73.44
79463;BME280;68931;47.286;18.756;2023-06-04T00:18:49;100922.53;;;12.13;73.34
79463;BME280;68931;47.286;18.756;2023-06-04T00:19:21;100916.75;;;12.06;73.02
79463;BME280;68931;47.286;18.756;2023-06-04T00:19:56;100927.13;;;12.10;72.64
79463;BME280;68931;47.286;18.756;2023-06-04T00:20:28;100915.25;;;12.02;74.09
79463;BME280;68931;47.286;18.756;2023-06-04T00:21:00;100910.84;;;12.03;75.31
79463;BME280;68931;47.286;18.756;2023-06-04T00:21:32;100913.41;;;12.04;75.43
79463;BME280;68931;47.286;18.756;2023-06-04T00:22:04;100902.34;;;11.98;74.62
79463;BME280;68931;47.286;18.756;2023-06-04T00:22:37;100888.16;;;11.86;74.74
79463;BME280;68931;47.286;18.756;2023-06-04T00:23:09;100915.91;;;12.06;75.80
79463;BME280;68931;47.286;18.756;2023-06-04T00:23:42;100917.53;;;12.09;76.04
79463;BME280;68931;47.286;18.756;2023-06-04T00:24:14;100901.34;;;12.00;76.08
79463;BME280;68931;47.286;18.756;2023-06-04T00:24:46;100909.81;;;12.05;75.99
79463;BME280;68931;47.286;18.756;2023-06-04T00:25:18;100919.41;;;12.06;74.75
79463;BME280;68931;47.286;18.756;2023-06-04T00:25:50;100914.13;;;12.06;75.63
79463;BME280;68931;47.286;18.756;2023-06-04T00:26:22;100914.91;;;12.09;74.59
79463;BME280;68931;47.286;18.756;2023-06-04T00:26:54;100911.50;;;12.06;74.06
79463;BME280;68931;47.286;18.756;2023-06-04T00:27:26;100914.06;;;12.08;74.72
79463;BME280;68931;47.286;18.756;2023-06-04T00:27:58;100916.59;;;12.10;74.16
79463;BME280;68931;47.286;18.756;2023-06-04T00:28:30;100918.31;;;12.11;74.07
79463;BME280;68931;47.286;18.756;2023-06-04T00:29:02;100908.97;;;12.05;73.88
79463;BME280;68931;47.286;18.756;2023-06-04T00:29:34;100912.44;;;12.05;74.05
79463;BME280;68931;47.286;18.756;2023-06-04T00:30:09;100915.84;;;12.07;74.58
79463;BME280;68931;47.286;18.756;2023-06-04T00:30:41;100915.66;;;12.11;74.24
79463;BME280;68931;47.286;18.756;2023-06-04T00:31:13;100923.47;;;12.12;74.25
79463;BME280;68931;47.286;18.756;2023-06-04T00:31:46;100922.53;;;12.13;73.34
79463;BME280;68931;47.286;18.756;2023-06-04T00:32:18;100927.63;;;12.16;73.52
79463;BME280;68931;47.286;18.756;2023-06-04T00:32:50;100913.19;;;12.07;73.34
79463;BME280;68931;47.286;18.756;2023-06-04T00:33:22;100923.28;;;12.15;73.74
79463;BME280;68931;47.286;18.756;2023-06-04T00:33:54;100920.00;;;12.12;73.82
79463;BME280;68931;47.286;18.756;2023-06-04T00:34:26;100917.38;;;12.12;72.92
79463;BME280;68931;47.286;18.756;2023-06-04T00:34:58;100921.69;;;12.13;72.97
79463;BME280;68931;47.286;18.756;2023-06-04T00:35:32;100933.38;;;12.23;73.48
79463;BME280;68931;47.286;18.756;2023-06-04T00:36:04;100919.81;;;12.15;74.03
79463;BME280;68931;47.286;18.756;2023-06-04T00:36:36;100921.41;;;12.17;73.84
79463;BME280;68931;47.286;18.756;2023-06-04T00:37:08;100909.28;;;12.15;73.54
79463;BME280;68931;47.286;18.756;2023-06-04T00:37:40;100928.09;;;12.23;73.03
79463;BME280;68931;47.286;18.756;2023-06-04T00:38:12;100926.59;;;12.19;73.46
79463;BME280;68931;47.286;18.756;2023-06-04T00:38:44;100921.34;;;12.19;73.70
79463;BME280;68931;47.286;18.756;2023-06-04T00:39:16;100923.81;;;12.22;73.92
79463;BME280;68931;47.286;18.756;2023-06-04T00:39:48;100924.81;;;12.19;73.68
79463;BME280;68931;47.286;18.756;2023-06-04T00:40:20;100914.91;;;12.09;73.90
79463;BME280;68931;47.286;18.756;2023-06-04T00:40:52;100921.38;;;12.03;73.74
79463;BME280;68931;47.286;18.756;2023-06-04T00:41:24;100921.44;;;12.01;73.65
79463;BME280;68931;47.286;18.756;2023-06-04T00:41:57;100909.31;;;11.99;73.15
79463;BME280;68931;47.286;18.756;2023-06-04T00:42:28;100924.75;;;12.05;73.48
79463;BME280;68931;47.286;18.756;2023-06-04T00:43:00;100926.72;;;12.01;73.23
79463;BME280;68931;47.286;18.756;2023-06-04T00:43:35;100925.94;;;11.99;73.80
79463;BME280;68931;47.286;18.756;2023-06-04T00:44:07;100928.66;;;11.98;74.37
79463;BME280;68931;47.286;18.756;2023-06-04T00:44:39;100933.25;;;11.94;74.79
79463;BME280;68931;47.286;18.756;2023-06-04T00:45:16;100924.53;;;11.94;74.83
79463;BME280;68931;47.286;18.756;2023-06-04T00:45:54;100922.91;;;11.91;74.63
79463;BME280;68931;47.286;18.756;2023-06-04T00:46:26;100929.69;;;11.95;74.79
79463;BME280;68931;47.286;18.756;2023-06-04T00:46:58;100930.72;;;11.93;74.73
79463;BME280;68931;47.286;18.756;2023-06-04T00:47:30;100900.38;;;11.70;74.36
79463;BME280;68931;47.286;18.756;2023-06-04T00:48:02;100925.59;;;11.90;75.87
79463;BME280;68931;47.286;18.756;2023-06-04T00:48:34;100928.50;;;11.85;75.17
79463;BME280;68931;47.286;18.756;2023-06-04T00:49:08;100929.44;;;11.84;74.62
79463;BME280;68931;47.286;18.756;2023-06-04T00:49:40;100933.78;;;11.85;74.81
79463;BME280;68931;47.286;18.756;2023-06-04T00:50:14;100933.06;;;11.82;75.67
79463;BME280;68931;47.286;18.756;2023-06-04T00:50:47;100933.22;;;11.79;75.14
79463;BME280;68931;47.286;18.756;2023-06-04T00:51:21;100922.47;;;11.67;75.65
79463;BME280;68931;47.286;18.756;2023-06-04T00:51:53;100923.31;;;11.68;75.46
79463;BME280;68931;47.286;18.756;2023-06-04T00:52:26;100919.06;;;11.65;75.53
79463;BME280;68931;47.286;18.756;2023-06-04T00:52:58;100934.91;;;11.64;75.57
79463;BME280;68931;47.286;18.756;2023-06-04T00:53:31;100933.97;;;11.65;76.12
79463;BME280;68931;47.286;18.756;2023-06-04T00:54:04;100921.91;;;11.61;76.36
79463;BME280;68931;47.286;18.756;2023-06-04T00:54:41;100932.13;;;11.67;76.50
79463;BME280;68931;47.286;18.756;2023-06-04T00:55:15;100931.34;;;11.65;76.14
79463;BME280;68931;47.286;18.756;2023-06-04T00:55:50;100921.19;;;11.59;76.53
79463;BME280;68931;47.286;18.756;2023-06-04T00:56:22;100923.81;;;11.59;77.08
79463;BME280;68931;47.286;18.756;2023-06-04T00:56:54;100924.75;;;11.58;77.41
79463;BME280;68931;47.286;18.756;2023-06-04T00:57:26;100940.44;;;11.59;76.42
79463;BME280;68931;47.286;18.756;2023-06-04T00:57:58;100930.00;;;11.58;76.88
79463;BME280;68931;47.286;18.756;2023-06-04T00:58:38;100933.56;;;11.57;76.85
79463;BME280;68931;47.286;18.756;2023-06-04T00:59:13;100927.59;;;11.53;76.99
79463;BME280;68931;47.286;18.756;2023-06-04T00:59:45;100924.91;;;11.55;76.92
79463;BME280;68931;47.286;18.756;2023-06-04T01:00:18;100923.88;;;11.57;76.34
79463;BME280;68931;47.286;18.756;2023-06-04T01:00:51;100915.59;;;11.49;76.95
79463;BME280;68931;47.286;18.756;2023-06-04T01:01:51;100931.69;;;11.59;76.03
79463;BME280;68931;47.286;18.756;2023-06-04T01:02:27;100930.06;;;11.56;76.26
79463;BME280;68931;47.286;18.756;2023-06-04T01:03:07;100916.16;;;11.54;76.42
79463;BME280;68931;47.286;18.756;2023-06-04T01:03:45;100913.88;;;11.48;76.64
79463;BME280;68931;47.286;18.756;2023-06-04T01:04:29;100927.19;;;11.61;75.66
79463;BME280;68931;47.286;18.756;2023-06-04T01:05:19;100911.75;;;11.55;75.78
79463;BME280;68931;47.286;18.756;2023-06-04T01:06:05;100928.72;;;11.65;76.37
79463;BME280;68931;47.286;18.756;2023-06-04T01:06:45;100912.25;;;11.61;76.12
79463;BME280;68931;47.286;18.756;2023-06-04T01:07:22;100906.28;;;11.59;75.93
79463;BME280;68931;47.286;18.756;2023-06-04T01:07:56;100927.44;;;11.72;76.65
79463;BME280;68931;47.286;18.756;2023-06-04T01:08:29;100919.84;;;11.67;76.17
79463;BME280;68931;47.286;18.756;2023-06-04T01:09:02;100924.41;;;11.64;76.45
79463;BME280;68931;47.286;18.756;2023-06-04T01:09:36;100931.00;;;11.71;77.08
79463;BME280;68931;47.286;18.756;2023-06-04T01:10:11;100924.16;;;11.68;76.92
79463;BME280;68931;47.286;18.756;2023-06-04T01:10:55;100922.47;;;11.67;76.72
79463;BME280;68931;47.286;18.756;2023-06-04T01:11:35;100919.84;;;11.67;77.81
79463;BME280;68931;47.286;18.756;2023-06-04T01:12:08;100924.25;;;11.67;77.48
79463;BME280;68931;47.286;18.756;2023-06-04T01:12:41;100932.13;;;11.67;78.35
79463;BME280;68931;47.286;18.756;2023-06-04T01:13:13;100928.03;;;11.61;77.29
79463;BME280;68931;47.286;18.756;2023-06-04T01:13:45;100917.63;;;11.60;76.58
79463;BME280;68931;47.286;18.756;2023-06-04T01:14:17;100914.03;;;11.61;76.78
79463;BME280;68931;47.286;18.756;2023-06-04T01:14:50;100928.38;;;11.71;76.74
79463;BME280;68931;47.286;18.756;2023-06-04T01:15:22;100933.75;;;11.69;76.39
79463;BME280;68931;47.286;18.756;2023-06-04T01:15:54;100920.00;;;11.64;76.84
79463;BME280;68931;47.286;18.756;2023-06-04T01:16:29;100915.75;;;11.62;75.92
79463;BME280;68931;47.286;18.756;2023-06-04T01:17:18;100922.28;;;11.70;77.10
79463;BME280;68931;47.286;18.756;2023-06-04T01:17:56;100931.84;;;11.72;76.41
79463;BME280;68931;47.286;18.756;2023-06-04T01:18:38;100929.31;;;11.70;76.57
79463;BME280;68931;47.286;18.756;2023-06-04T01:19:30;100922.53;;;11.66;76.72
79463;BME280;68931;47.286;18.756;2023-06-04T01:20:46;100915.22;;;11.71;75.92
79463;BME280;68931;47.286;18.756;2023-06-04T01:21:19;100918.50;;;11.76;76.17
79463;BME280;68931;47.286;18.756;2023-06-04T01:22:02;100916.66;;;11.78;75.66
79463;BME280;68931;47.286;18.756;2023-06-04T01:23:49;100932.06;;;11.84;76.22
79463;BME280;68931;47.286;18.756;2023-06-04T01:24:35;100922.22;;;11.88;75.57
79463;BME280;68931;47.286;18.756;2023-06-04T01:25:24;100923.84;;;11.90;76.39
79463;BME280;68931;47.286;18.756;2023-06-04T01:25:58;100919.59;;;11.88;76.04
79463;BME280;68931;47.286;18.756;2023-06-04T01:26:31;100911.03;;;11.84;76.40
79463;BME280;68931;47.286;18.756;2023-06-04T01:27:05;100918.50;;;11.92;77.14
79463;BME280;68931;47.286;18.756;2023-06-04T01:27:38;100927.22;;;11.92;77.17
79463;BME280;68931;47.286;18.756;2023-06-04T01:28:13;100925.38;;;11.94;76.15
79463;BME280;68931;47.286;18.756;2023-06-04T01:28:46;100914.25;;;11.89;76.33
79463;BME280;68931;47.286;18.756;2023-06-04T01:29:19;100914.31;;;11.88;76.56
79463;BME280;68931;47.286;18.756;2023-06-04T01:29:51;100912.38;;;11.91;76.06
79463;BME280;68931;47.286;18.756;2023-06-04T01:30:29;100909.91;;;11.88;76.04
79463;BME280;68931;47.286;18.756;2023-06-04T01:31:03;100923.22;;;12.01;77.11
79463;BME280;68931;47.286;18.756;2023-06-04T01:31:36;100918.22;;;11.96;76.87
79463;BME280;68931;47.286;18.756;2023-06-04T01:32:08;100925.78;;;12.02;76.10
79463;BME280;68931;47.286;18.756;2023-06-04T01:32:41;100925.69;;;12.04;75.50
79463;BME280;68931;47.286;18.756;2023-06-04T01:33:18;100904.25;;;11.96;75.69
79463;BME280;68931;47.286;18.756;2023-06-04T01:33:52;100927.28;;;12.06;74.84
79463;BME280;68931;47.286;18.756;2023-06-04T01:34:24;100922.03;;;12.06;74.80
79463;BME280;68931;47.286;18.756;2023-06-04T01:34:56;100924.56;;;12.08;75.51
79463;BME280;68931;47.286;18.756;2023-06-04T01:35:29;100914.22;;;12.05;76.22
79463;BME280;68931;47.286;18.756;2023-06-04T01:36:04;100882.03;;;11.86;77.36
79463;BME280;68931;47.286;18.756;2023-06-04T01:36:36;100917.69;;;12.05;77.21
79463;BME280;68931;47.286;18.756;2023-06-04T01:37:08;100927.19;;;12.08;76.89
79463;BME280;68931;47.286;18.756;2023-06-04T01:37:40;100926.28;;;12.09;78.04
79463;BME280;68931;47.286;18.756;2023-06-04T01:38:12;100920.25;;;12.07;77.82
79463;BME280;68931;47.286;18.756;2023-06-04T01:38:45;100917.13;;;12.00;78.26
79463;BME280;68931;47.286;18.756;2023-06-04T01:39:17;100926.72;;;12.01;77.70
79463;BME280;68931;47.286;18.756;2023-06-04T01:39:49;100926.34;;;12.07;76.86
79463;BME280;68931;47.286;18.756;2023-06-04T01:40:22;100920.16;;;12.09;76.15
79463;BME280;68931;47.286;18.756;2023-06-04T01:40:56;100924.56;;;12.08;76.85
79463;BME280;68931;47.286;18.756;2023-06-04T01:41:32;100914.34;;;12.03;78.23
79463;BME280;68931;47.286;18.756;2023-06-04T01:42:04;100921.88;;;12.10;78.49
79463;BME280;68931;47.286;18.756;2023-06-04T01:42:36;100921.88;;;12.10;76.53
79463;BME280;68931;47.286;18.756;2023-06-04T01:43:11;100924.41;;;12.11;77.77
79463;BME280;68931;47.286;18.756;2023-06-04T01:43:43;100916.84;;;12.05;77.81
79463;BME280;68931;47.286;18.756;2023-06-04T01:44:15;100918.66;;;12.04;77.80
79463;BME280;68931;47.286;18.756;2023-06-04T01:44:47;100908.47;;;11.98;77.52
79463;BME280;68931;47.286;18.756;2023-06-04T01:45:23;100927.47;;;12.03;77.63
79463;BME280;68931;47.286;18.756;2023-06-04T01:45:55;100923.31;;;11.99;77.16
79463;BME280;68931;47.286;18.756;2023-06-04T01:46:28;100895.91;;;11.88;76.77
79463;BME280;68931;47.286;18.756;2023-06-04T01:47:00;100921.09;;;12.07;76.56
79463;BME280;68931;47.286;18.756;2023-06-04T01:47:32;100917.69;;;12.05;75.92
79463;BME280;68931;47.286;18.756;2023-06-04T01:48:05;100921.78;;;12.11;74.96
79463;BME280;68931;47.286;18.756;2023-06-04T01:48:37;100910.41;;;12.11;75.78
79463;BME280;68931;47.286;18.756;2023-06-04T01:49:10;100922.28;;;12.18;76.73
79463;BME280;68931;47.286;18.756;2023-06-04T01:49:42;100923.97;;;12.19;75.56
79463;BME280;68931;47.286;18.756;2023-06-04T01:50:14;100920.56;;;12.17;76.79
79463;BME280;68931;47.286;18.756;2023-06-04T01:50:46;100924.81;;;12.19;75.92
79463;BME280;68931;47.286;18.756;2023-06-04T01:51:18;100901.84;;;12.07;76.48
79463;BME280;68931;47.286;18.756;2023-06-04T01:51:50;100923.13;;;12.18;76.35
79463;BME280;68931;47.286;18.756;2023-06-04T01:52:22;100924.81;;;12.19;76.69
79463;BME280;68931;47.286;18.756;2023-06-04T01:52:55;100914.53;;;12.15;76.11
79463;BME280;68931;47.286;18.756;2023-06-04T01:53:27;100920.50;;;12.18;77.21
79463;BME280;68931;47.286;18.756;2023-06-04T01:53:59;100915.38;;;12.15;78.26
79463;BME280;68931;47.286;18.756;2023-06-04T01:54:32;100914.53;;;12.15;77.67
79463;BME280;68931;47.286;18.756;2023-06-04T01:55:08;100913.81;;;12.13;77.96
79463;BME280;68931;47.286;18.756;2023-06-04T01:55:40;100913.81;;;12.13;77.18
79463;BME280;68931;47.286;18.756;2023-06-04T01:56:12;100923.97;;;12.19;77.46
79463;BME280;68931;47.286;18.756;2023-06-04T01:56:44;100904.47;;;12.07;77.07
79463;BME280;68931;47.286;18.756;2023-06-04T01:57:16;100919.47;;;12.21;76.67
79463;BME280;68931;47.286;18.756;2023-06-04T01:57:52;100929.63;;;12.27;76.49
79463;BME280;68931;47.286;18.756;2023-06-04T01:58:24;100924.38;;;12.27;76.48
79463;BME280;68931;47.286;18.756;2023-06-04T01:58:58;100921.81;;;12.25;76.58
79463;BME280;68931;47.286;18.756;2023-06-04T01:59:30;100928.78;;;12.26;76.29
79463;BME280;68931;47.286;18.756;2023-06-04T02:00:04;100929.63;;;12.27;76.80
79463;BME280;68931;47.286;18.756;2023-06-04T02:00:39;100918.25;;;12.26;77.25
79463;BME280;68931;47.286;18.756;2023-06-04T02:01:11;100923.16;;;12.32;77.89
79463;BME280;68931;47.286;18.756;2023-06-04T02:01:43;100911.31;;;12.25;78.19
79463;BME280;68931;47.286;18.756;2023-06-04T02:02:15;100924.09;;;12.31;76.82
79463;BME280;68931;47.286;18.756;2023-06-04T02:02:47;100929.28;;;12.33;76.91
79463;BME280;68931;47.286;18.756;2023-06-04T02:03:24;100915.56;;;12.28;76.88
79463;BME280;68931;47.286;18.756;2023-06-04T02:03:57;100928.34;;;12.34;76.79
79463;BME280;68931;47.286;18.756;2023-06-04T02:04:29;100912.16;;;12.26;76.83
79463;BME280;68931;47.286;18.756;2023-06-04T02:05:01;100914.78;;;12.26;76.18
79463;BME280;68931;47.286;18.756;2023-06-04T02:05:33;100889.94;;;12.16;76.07
79463;BME280;68931;47.286;18.756;2023-06-04T02:06:05;100923.06;;;12.34;76.00
79463;BME280;68931;47.286;18.756;2023-06-04T02:06:40;100930.13;;;12.33;75.92
79463;BME280;68931;47.286;18.756;2023-06-04T02:07:12;100927.56;;;12.32;75.66
79463;BME280;68931;47.286;18.756;2023-06-04T02:07:49;100925.91;;;12.31;75.69
79463;BME280;68931;47.286;18.756;2023-06-04T02:08:21;100909.81;;;12.21;76.88
79463;BME280;68931;47.286;18.756;2023-06-04T02:08:53;100936.50;;;12.29;76.31
79463;BME280;68931;47.286;18.756;2023-06-04T02:09:28;100925.38;;;12.24;76.27
79463;BME280;68931;47.286;18.756;2023-06-04T02:10:00;100934.13;;;12.25;75.48
79463;BME280;68931;47.286;18.756;2023-06-04T02:10:32;100928.09;;;12.23;76.28
79463;BME280;68931;47.286;18.756;2023-06-04T02:11:04;100933.28;;;12.24;76.73
79463;BME280;68931;47.286;18.756;2023-06-04T02:11:36;100941.84;;;12.28;76.86
79463;BME280;68931;47.286;18.756;2023-06-04T02:12:08;100947.03;;;12.29;77.33
79463;BME280;68931;47.286;18.756;2023-06-04T02:12:52;100934.91;;;12.27;76.64
79463;BME280;68931;47.286;18.756;2023-06-04T02:13:24;100933.13;;;12.27;76.50
79463;BME280;68931;47.286;18.756;2023-06-04T02:13:57;100932.34;;;12.25;76.54
79463;BME280;68931;47.286;18.756;2023-06-04T02:14:29;100944.50;;;12.28;76.01
79463;BME280;68931;47.286;18.756;2023-06-04T02:15:01;100930.00;;;12.21;76.66
79463;BME280;68931;47.286;18.756;2023-06-04T02:15:34;100935.91;;;12.24;77.44
79463;BME280;68931;47.286;18.756;2023-06-04T02:16:06;100938.63;;;12.23;77.60
79463;BME280;68931;47.286;18.756;2023-06-04T02:16:38;100936.97;;;12.22;77.27
79463;BME280;68931;47.286;18.756;2023-06-04T02:17:11;100939.06;;;12.15;78.69
79463;BME280;68931;47.286;18.756;2023-06-04T02:17:48;100905.00;;;11.98;78.46
79463;BME280;68931;47.286;18.756;2023-06-04T02:18:22;100929.31;;;12.17;78.54
79463;BME280;68931;47.286;18.756;2023-06-04T02:18:54;100938.91;;;12.18;79.11
79463;BME280;68931;47.286;18.756;2023-06-04T02:19:26;100941.53;;;12.18;79.21
79463;BME280;68931;47.286;18.756;2023-06-04T02:19:59;100911.50;;;12.06;79.53
79463;BME280;68931;47.286;18.756;2023-06-04T02:20:31;100927.03;;;12.11;79.59
79463;BME280;68931;47.286;18.756;2023-06-04T02:21:03;100929.75;;;12.10;79.36
79463;BME280;68931;47.286;18.756;2023-06-04T02:21:35;100920.94;;;12.11;78.37
79463;BME280;68931;47.286;18.756;2023-06-04T02:22:07;100920.09;;;12.10;79.35
79463;BME280;68931;47.286;18.756;2023-06-04T02:22:39;100933.56;;;12.20;78.92
79463;BME280;68931;47.286;18.756;2023-06-04T02:23:12;100936.97;;;12.22;78.88
79463;BME280;68931;47.286;18.756;2023-06-04T02:23:44;100936.97;;;12.22;78.46
79463;BME280;68931;47.286;18.756;2023-06-04T02:24:16;100932.63;;;12.21;77.71
79463;BME280;68931;47.286;18.756;2023-06-04T02:24:48;100936.84;;;12.23;78.43
79463;BME280;68931;47.286;18.756;2023-06-04T02:25:21;100936.75;;;12.25;78.35
79463;BME280;68931;47.286;18.756;2023-06-04T02:25:53;100937.59;;;12.25;77.75
79463;BME280;68931;47.286;18.756;2023-06-04T02:26:25;100937.13;;;12.19;77.67
79463;BME280;68931;47.286;18.756;2023-06-04T02:26:57;100936.09;;;12.21;76.68
79463;BME280;68931;47.286;18.756;2023-06-04T02:27:29;100928.47;;;12.17;76.83
79463;BME280;68931;47.286;18.756;2023-06-04T02:28:02;100935.81;;;12.26;76.73
79463;BME280;68931;47.286;18.756;2023-06-04T02:28:34;100930.66;;;12.24;77.34
79463;BME280;68931;47.286;18.756;2023-06-04T02:29:06;100930.41;;;12.29;76.68
79463;BME280;68931;47.286;18.756;2023-06-04T02:29:40;100934.72;;;12.30;77.71
79463;BME280;68931;47.286;18.756;2023-06-04T02:30:12;100926.72;;;12.31;77.44
79463;BME280;68931;47.286;18.756;2023-06-04T02:30:44;100930.19;;;12.32;77.33
79463;BME280;68931;47.286;18.756;2023-06-04T02:31:20;100929.28;;;12.33;78.30
79463;BME280;68931;47.286;18.756;2023-06-04T02:31:52;100929.19;;;12.34;77.15
79463;BME280;68931;47.286;18.756;2023-06-04T02:32:24;100929.28;;;12.33;76.30
79463;BME280;68931;47.286;18.756;2023-06-04T02:32:57;100924.38;;;12.27;76.00
79463;BME280;68931;47.286;18.756;2023-06-04T02:33:32;100924.47;;;12.25;76.33
79463;BME280;68931;47.286;18.756;2023-06-04T02:34:04;100924.53;;;12.24;76.61
79463;BME280;68931;47.286;18.756;2023-06-04T02:34:37;100931.25;;;12.29;77.24
79463;BME280;68931;47.286;18.756;2023-06-04T02:35:09;100920.22;;;12.23;76.88
79463;BME280;68931;47.286;18.756;2023-06-04T02:35:41;100938.47;;;12.26;76.57
79463;BME280;68931;47.286;18.756;2023-06-04T02:36:13;100922.03;;;12.22;77.83
79463;BME280;68931;47.286;18.756;2023-06-04T02:36:45;100931.16;;;12.31;77.75
79463;BME280;68931;47.286;18.756;2023-06-04T02:37:20;100927.56;;;12.32;77.70
79463;BME280;68931;47.286;18.756;2023-06-04T02:37:52;100923.28;;;12.31;76.73
79463;BME280;68931;47.286;18.756;2023-06-04T02:38:24;100926.56;;;12.34;77.02
79463;BME280;68931;47.286;18.756;2023-06-04T02:38:56;100921.47;;;12.31;77.25
79463;BME280;68931;47.286;18.756;2023-06-04T02:39:28;100921.56;;;12.30;76.60
79463;BME280;68931;47.286;18.756;2023-06-04T02:40:00;100927.41;;;12.35;76.92
79463;BME280;68931;47.286;18.756;2023-06-04T02:40:32;100926.47;;;12.36;77.04
79463;BME280;68931;47.286;18.756;2023-06-04T02:41:04;100928.81;;;12.40;76.80
79463;BME280;68931;47.286;18.756;2023-06-04T02:41:36;100930.63;;;12.40;77.17
79463;BME280;68931;47.286;18.756;2023-06-04T02:42:11;100917.06;;;12.32;77.68
79463;BME280;68931;47.286;18.756;2023-06-04T02:42:43;100922.16;;;12.35;77.04
79463;BME280;68931;47.286;18.756;2023-06-04T02:43:15;100925.72;;;12.34;77.56
79463;BME280;68931;47.286;18.756;2023-06-04T02:43:47;100918.00;;;12.31;77.92
79463;BME280;68931;47.286;18.756;2023-06-04T02:44:19;100894.56;;;12.12;77.24
79463;BME280;68931;47.286;18.756;2023-06-04T02:44:51;100929.47;;;12.30;77.96
79463;BME280;68931;47.286;18.756;2023-06-04T02:45:23;100926.25;;;12.25;77.05
79463;BME280;68931;47.286;18.756;2023-06-04T02:45:55;100923.69;;;12.23;77.46
79463;BME280;68931;47.286;18.756;2023-06-04T02:46:27;100931.50;;;12.25;77.57
79463;BME280;68931;47.286;18.756;2023-06-04T02:46:59;100928.88;;;12.25;77.47
79463;BME280;68931;47.286;18.756;2023-06-04T02:47:38;100920.41;;;12.20;77.55
79463;BME280;68931;47.286;18.756;2023-06-04T02:48:10;100913.88;;;12.11;77.63
79463;BME280;68931;47.286;18.756;2023-06-04T02:48:43;100896.09;;;12.00;77.67
79463;BME280;68931;47.286;18.756;2023-06-04T02:49:20;100886.09;;;11.91;78.07
79463;BME280;68931;47.286;18.756;2023-06-04T02:49:52;100883.53;;;11.90;78.16
79463;BME280;68931;47.286;18.756;2023-06-04T02:50:24;100886.09;;;11.91;77.68
79463;BME280;68931;47.286;18.756;2023-06-04T02:51:13;100929.41;;;12.16;78.23
79463;BME280;68931;47.286;18.756;2023-06-04T02:51:46;100933.91;;;12.14;78.39
79463;BME280;68931;47.286;18.756;2023-06-04T02:52:20;100931.53;;;12.09;77.95
79463;BME280;68931;47.286;18.756;2023-06-04T02:52:54;100915.34;;;12.01;77.90
79463;BME280;68931;47.286;18.756;2023-06-04T02:53:26;100933.59;;;12.04;78.07
79463;BME280;68931;47.286;18.756;2023-06-04T02:53:58;100924.25;;;11.98;78.30
79463;BME280;68931;47.286;18.756;2023-06-04T02:54:30;100931.19;;;11.99;77.65
79463;BME280;68931;47.286;18.756;2023-06-04T02:55:06;100931.13;;;12.01;78.36